Time;durP1;ratioP1;P1;durP2;ratioP2;P2;SDS_P1;SDS_P2;PMS_P1;PMS_P2;Temp;Humidity;BMP_temperature;BMP_pressure;BME280_temperature;BME280_humidity;BME280_pressure;Samples;Min_cycle;Max_cycle;Signal;HPM_P1;HPM_P2
2023/08/04 00:00:59;;;;;;;11.68;8.95;;;;;;;22.19;100.00;99773.95;1440682;90;21413;-79
2023/08/04 00:03:26;;;;;;;11.63;9.90;;;;;;;22.20;100.00;99775.58;1434198;90;21463;-79
2023/08/04 00:05:52;;;;;;;11.10;9.10;;;;;;;22.15;100.00;99770.05;1450666;89;22211;-78
2023/08/04 00:08:19;;;;;;;11.50;8.90;;;;;;;22.11;100.00;99767.56;1422206;90;21420;-79
2023/08/04 00:10:45;;;;;;;12.65;7.83;;;;;;;22.10;100.00;99774.83;1414072;89;21552;-79
2023/08/04 00:13:11;;;;;;;10.68;7.80;;;;;;;22.08;100.00;99779.09;1427826;89;21571;-80
2023/08/04 00:15:38;;;;;;;10.15;7.97;;;;;;;22.08;100.00;99780.98;1426810;89;21471;-78
2023/08/04 00:18:04;;;;;;;9.38;6.75;;;;;;;22.08;100.00;99779.09;1451919;89;21634;-79
2023/08/04 00:20:32;;;;;;;9.53;7.67;;;;;;;22.07;100.00;99773.96;1452744;89;21663;-80
2023/08/04 00:22:58;;;;;;;8.70;7.65;;;;;;;22.05;100.00;99761.25;1437717;91;21517;-81
2023/08/04 00:25:24;;;;;;;8.43;6.75;;;;;;;22.04;100.00;99752.35;1453593;90;21597;-80
2023/08/04 00:27:50;;;;;;;7.28;6.58;;;;;;;22.03;100.00;99740.45;1442878;91;21525;-79
2023/08/04 00:30:18;;;;;;;9.30;6.70;;;;;;;22.01;100.00;99728.58;1446948;90;21634;-80
2023/08/04 00:32:45;;;;;;;12.28;7.10;;;;;;;21.98;100.00;99733.11;1441986;91;22612;-81
2023/08/04 00:35:11;;;;;;;10.38;6.50;;;;;;;21.92;100.00;99726.48;1450636;90;22394;-81
2023/08/04 00:37:37;;;;;;;10.65;6.95;;;;;;;21.76;100.00;99713.25;1437976;91;21636;-79
2023/08/04 00:40:05;;;;;;;9.33;6.72;;;;;;;21.76;100.00;99713.25;1452921;90;21645;-79
2023/08/04 00:42:31;;;;;;;8.13;7.15;;;;;;;21.67;100.00;99714.69;1434247;91;21489;-80
2023/08/04 00:44:58;;;;;;;9.95;7.17;;;;;;;21.67;100.00;99714.69;1479427;87;22889;-81
2023/08/04 00:47:25;;;;;;;9.18;7.28;;;;;;;21.51;100.00;99714.34;1477658;88;22363;-80
2023/08/04 00:49:54;;;;;;;8.30;7.47;;;;;;;21.45;100.00;99721.21;1479394;87;22305;-80
2023/08/04 00:52:21;;;;;;;11.12;7.65;;;;;;;21.42;100.00;99717.12;1476897;88;21433;-81
2023/08/04 00:54:47;;;;;;;8.28;6.97;;;;;;;21.41;100.00;99724.91;1469340;88;21617;-80
2023/08/04 00:57:14;;;;;;;8.95;8.00;;;;;;;21.39;100.00;99725.66;1474899;88;22372;-80
2023/08/04 00:59:41;;;;;;;11.85;7.53;;;;;;;21.39;100.00;99710.86;1469231;88;22379;-79
2023/08/04 01:02:07;;;;;;;9.18;8.25;;;;;;;21.39;100.00;99710.86;1461236;88;22448;-80
2023/08/04 01:04:33;;;;;;;12.25;7.62;;;;;;;21.40;100.00;99717.88;1403671;88;21568;-79
2023/08/04 01:07:23;;;;;;;12.63;8.65;;;;;;;21.40;100.00;99728.10;1452024;89;21390;-79
2023/08/04 01:10:22;;;;;;;11.95;8.55;;;;;;;21.42;100.00;99725.19;1405877;88;21375;-79
2023/08/04 01:13:06;;;;;;;12.28;7.87;;;;;;;21.44;100.00;99733.05;1565709;87;21346;-81
2023/08/04 01:15:35;;;;;;;10.38;7.80;;;;;;;21.41;100.00;99747.79;1550393;88;22256;-81
2023/08/04 01:18:01;;;;;;;10.10;8.43;;;;;;;21.41;100.00;99747.79;1389763;89;21493;-81
2023/08/04 01:20:28;;;;;;;16.23;8.18;;;;;;;21.34;100.00;99839.90;1403397;88;21426;-81
2023/08/04 01:22:54;;;;;;;11.88;6.67;;;;;;;21.15;100.00;99810.41;1403273;88;22217;-80
2023/08/04 01:28:38;;;;;;;8.85;6.45;;;;;;;21.11;100.00;99810.55;1531537;88;21486;-81
2023/08/04 01:31:09;;;;;;;8.05;6.40;;;;;;;21.04;100.00;99821.15;1391065;89;21534;-80
2023/08/04 01:33:36;;;;;;;8.25;6.62;;;;;;;21.04;100.00;99807.16;1474220;88;21463;-81
2023/08/04 01:36:03;;;;;;;6.85;6.15;;;;;;;21.05;100.00;99806.11;1482661;88;21588;-82
2023/08/04 01:38:29;;;;;;;12.30;6.62;;;;;;;21.03;100.00;99805.53;1484524;88;21418;-82
2023/08/04 01:40:56;;;;;;;7.37;5.00;;;;;;;21.03;100.00;99800.16;1480373;88;21529;-82
2023/08/04 01:43:22;;;;;;;7.62;5.17;;;;;;;21.02;100.00;99798.50;1467575;88;21441;-82
2023/08/04 01:45:49;;;;;;;6.78;6.00;;;;;;;21.01;100.00;99813.54;1481341;87;21464;-82
2023/08/04 01:48:16;;;;;;;7.25;5.58;;;;;;;21.00;100.00;99815.92;1466319;88;22050;-82
2023/08/04 01:50:42;;;;;;;12.18;6.33;;;;;;;20.98;100.00;99798.68;1479318;87;21456;-83
2023/08/04 01:53:12;;;;;;;7.45;5.87;;;;;;;21.00;100.00;99797.09;1480003;88;21612;-82
2023/08/04 01:59:39;;;;;;;6.12;5.53;;;;;;;20.93;100.00;99796.67;1489846;88;22468;-81
2023/08/04 02:02:05;;;;;;;5.92;5.15;;;;;;;20.91;100.00;99781.81;1472554;88;21581;-82
2023/08/04 02:04:32;;;;;;;8.85;4.95;;;;;;;20.91;100.00;99777.24;1484931;87;21381;-81
2023/08/04 02:06:58;;;;;;;6.92;5.67;;;;;;;20.90;100.00;99770.77;1461095;88;21485;-83
2023/08/04 02:09:27;;;;;;;7.12;5.10;;;;;;;20.88;100.00;99766.14;1481142;87;22542;-82
2023/08/04 02:11:55;;;;;;;7.83;6.10;;;;;;;20.84;100.00;99754.22;1473177;87;22594;-83
2023/08/04 02:14:24;;;;;;;8.43;4.50;;;;;;;20.80;100.00;99742.27;1481419;87;21640;-82
2023/08/04 02:16:50;;;;;;;12.13;5.67;;;;;;;20.81;100.00;99734.51;1480914;87;21543;-81
2023/08/04 02:19:16;;;;;;;6.47;5.42;;;;;;;20.85;100.00;99735.67;1468917;88;21486;-81
2023/08/04 02:21:43;;;;;;;9.38;5.30;;;;;;;20.85;100.00;99735.67;1481835;87;21517;-80
2023/08/04 02:24:09;;;;;;;7.37;6.47;;;;;;;20.84;100.00;99740.23;1471463;88;21622;-83
2023/08/04 02:26:35;;;;;;;7.03;6.10;;;;;;;20.84;100.00;99732.70;1475970;87;21427;-84
2023/08/04 02:29:01;;;;;;;11.20;6.90;;;;;;;20.86;100.00;99733.27;1488149;87;22472;-83
2023/08/04 02:31:29;;;;;;;7.50;5.95;;;;;;;20.87;100.00;99733.58;1460758;88;21486;-83
2023/08/04 02:33:57;;;;;;;9.60;6.25;;;;;;;20.88;100.00;99729.83;1479344;87;22283;-83
2023/08/04 02:36:23;;;;;;;9.50;6.87;;;;;;;20.87;100.00;99741.65;1489820;88;21722;-79
2023/08/04 02:38:50;;;;;;;8.40;6.20;;;;;;;20.86;100.00;99735.95;1481922;88;21411;-80
2023/08/04 02:41:16;;;;;;;7.65;5.85;;;;;;;20.85;100.00;99742.39;1477528;87;21708;-80
2023/08/04 02:43:43;;;;;;;7.67;6.87;;;;;;;20.87;100.00;99741.65;1474205;87;21456;-79
2023/08/04 02:46:10;;;;;;;9.30;6.95;;;;;;;20.85;100.00;99748.59;1480316;87;21553;-82
2023/08/04 02:48:37;;;;;;;9.80;6.35;;;;;;;20.86;100.00;99757.47;1479791;88;21522;-82
2023/08/04 02:51:10;;;;;;;7.45;6.40;;;;;;;20.89;100.00;99767.80;1478259;87;22469;-83
2023/08/04 02:53:40;;;;;;;9.93;6.72;;;;;;;20.87;100.00;99771.23;1473710;88;21457;-82
2023/08/04 02:56:14;;;;;;;8.38;7.30;;;;;;;20.81;100.00;99766.78;1472332;88;21439;-82
2023/08/04 02:58:42;;;;;;;9.10;7.28;;;;;;;20.79;100.00;99771.56;1477595;88;21500;-82
2023/08/04 03:01:09;;;;;;;11.80;7.00;;;;;;;20.79;100.00;99770.22;1470846;87;21684;-82
2023/08/04 03:03:35;;;;;;;7.72;6.20;;;;;;;20.80;100.00;99770.50;1465554;88;21462;-83
2023/08/04 03:06:02;;;;;;;11.08;7.78;;;;;;;20.81;100.00;99774.84;1466020;88;21434;-83
2023/08/04 03:08:31;;;;;;;12.55;6.67;;;;;;;20.75;100.00;99781.15;1472365;87;21563;-81
2023/08/04 03:10:58;;;;;;;7.83;6.85;;;;;;;20.68;100.00;99793.33;1479595;87;21374;-81
2023/08/04 03:13:24;;;;;;;8.70;6.40;;;;;;;20.63;100.00;99806.12;1465285;87;22512;-83
2023/08/04 03:15:57;;;;;;;9.03;6.15;;;;;;;20.59;100.00;99812.99;1468887;88;21500;-79
2023/08/04 03:18:24;;;;;;;8.20;6.30;;;;;;;20.57;100.00;99801.67;1469075;87;21479;-83
2023/08/04 03:20:50;;;;;;;9.75;6.15;;;;;;;20.59;100.00;99799.55;1478719;87;22380;-83
2023/08/04 03:23:16;;;;;;;7.35;6.03;;;;;;;20.62;100.00;99791.03;1474643;87;21571;-82
2023/08/04 03:25:43;;;;;;;14.55;6.45;;;;;;;20.68;100.00;99779.88;1474563;87;21389;-83
2023/08/04 03:28:09;;;;;;;7.65;6.08;;;;;;;20.73;100.00;99759.86;1470475;87;22248;-82
2023/08/04 03:30:35;;;;;;;12.33;7.42;;;;;;;20.78;100.00;99752.45;1479466;87;21600;-82
2023/08/04 03:33:02;;;;;;;8.88;7.17;;;;;;;20.83;100.00;99754.75;1476538;87;21471;-82
2023/08/04 03:35:28;;;;;;;7.75;6.75;;;;;;;20.85;100.00;99757.19;1471495;87;21546;-83
2023/08/04 03:37:55;;;;;;;10.30;6.97;;;;;;;20.85;100.00;99763.91;1480011;88;22032;-83
2023/08/04 03:40:22;;;;;;;8.88;6.28;;;;;;;20.81;100.00;99764.09;1476255;87;21427;-82
2023/08/04 03:42:49;;;;;;;8.60;7.20;;;;;;;20.76;100.00;99780.09;1471057;87;21530;-82
2023/08/04 03:45:15;;;;;;;8.30;6.40;;;;;;;20.70;100.00;99786.67;1472618;87;21449;-83
2023/08/04 03:47:41;;;;;;;8.13;6.83;;;;;;;20.65;100.00;99782.50;1466806;88;21501;-82
2023/08/04 03:50:08;;;;;;;10.35;6.40;;;;;;;20.61;100.00;99793.43;1475547;87;21486;-81
2023/08/04 03:52:34;;;;;;;10.98;7.45;;;;;;;20.57;100.00;99800.83;1464805;88;21948;-80
2023/08/04 03:55:00;;;;;;;11.80;6.80;;;;;;;20.56;100.00;99806.73;1472978;87;21508;-82
2023/08/04 03:57:27;;;;;;;9.25;7.05;;;;;;;20.55;100.00;99810.48;1464700;88;22594;-83
2023/08/04 03:59:53;;;;;;;12.98;6.45;;;;;;;20.56;100.00;99815.33;1475519;87;21405;-81
2023/08/04 04:02:20;;;;;;;12.30;7.47;;;;;;;20.54;100.00;99821.44;1476663;87;21464;-83
2023/08/04 04:04:47;;;;;;;7.87;6.05;;;;;;;20.54;100.00;99822.26;1475914;88;22433;-82
2023/08/04 04:07:13;;;;;;;8.68;5.80;;;;;;;20.59;100.00;99825.09;1475378;87;22649;-83
2023/08/04 04:09:39;;;;;;;7.85;6.65;;;;;;;20.61;100.00;99818.97;1478208;88;21455;-80
2023/08/04 04:12:07;;;;;;;8.95;6.10;;;;;;;20.62;100.00;99811.19;1473285;87;21485;-81
2023/08/04 04:14:33;;;;;;;7.53;6.03;;;;;;;20.65;100.00;99801.85;1464591;88;22519;-82
2023/08/04 04:17:00;;;;;;;7.17;6.47;;;;;;;20.67;100.00;99789.82;1471969;87;21464;-85
2023/08/04 04:19:26;;;;;;;8.20;6.60;;;;;;;20.63;100.00;99794.03;1474671;87;21478;-81
2023/08/04 04:21:53;;;;;;;6.90;5.60;;;;;;;20.60;100.00;99791.80;1475543;87;22335;-80
2023/08/04 04:24:19;;;;;;;13.43;6.22;;;;;;;20.56;100.00;99794.63;1474290;88;21434;-80
2023/08/04 04:26:45;;;;;;;8.58;7.08;;;;;;;20.51;100.00;99788.59;1482723;87;21633;-80
2023/08/04 04:29:11;;;;;;;7.33;6.37;;;;;;;20.47;100.00;99793.29;1469685;88;21419;-82
2023/08/04 04:31:38;;;;;;;9.05;6.50;;;;;;;20.43;100.00;99797.49;1476176;87;21757;-79
2023/08/04 04:34:04;;;;;;;8.65;6.28;;;;;;;20.42;100.00;99805.23;1473973;87;21500;-81
2023/08/04 04:36:30;;;;;;;10.08;6.00;;;;;;;20.41;100.00;99809.80;1461555;88;21492;-81
2023/08/04 04:38:56;;;;;;;8.75;7.58;;;;;;;20.43;100.00;99819.00;1476219;87;22329;-82
2023/08/04 04:41:23;;;;;;;10.00;6.33;;;;;;;20.44;100.00;99819.28;1479752;87;21331;-79
2023/08/04 04:43:49;;;;;;;10.80;6.92;;;;;;;20.49;100.00;99820.77;1480436;87;21728;-80
2023/08/04 04:46:15;;;;;;;8.90;6.92;;;;;;;20.55;100.00;99821.23;1478361;88;21486;-80
2023/08/04 04:48:41;;;;;;;8.65;7.10;;;;;;;20.62;100.00;99827.32;1483224;87;21529;-82
2023/08/04 04:51:08;;;;;;;6.10;5.50;;;;;;;20.69;100.00;99831.28;1475319;87;21440;-80
2023/08/04 04:53:34;;;;;;;14.00;8.25;;;;;;;20.77;100.00;99816.67;1485096;87;22372;-81
2023/08/04 04:56:01;;;;;;;11.95;6.33;;;;;;;20.77;100.00;99816.67;1483534;87;22446;-81
2023/08/04 04:58:27;;;;;;;11.10;7.37;;;;;;;20.87;100.00;99829.05;1473968;88;21374;-82
2023/08/04 05:01:04;;;;;;;10.90;6.60;;;;;;;20.93;100.00;99822.22;1454184;88;21506;-80
2023/08/04 05:03:31;;;;;;;11.73;7.08;;;;;;;20.99;100.00;99817.80;1466513;88;22394;-80
2023/08/04 05:05:57;;;;;;;13.50;5.87;;;;;;;21.09;100.00;99824.79;1483766;87;21375;-81
2023/08/04 05:08:24;;;;;;;6.97;6.28;;;;;;;21.04;100.00;99831.38;1481877;87;21556;-80
2023/08/04 05:10:51;;;;;;;7.78;5.70;;;;;;;21.08;100.00;99837.11;1482751;88;21454;-81
2023/08/04 05:13:18;;;;;;;8.40;5.97;;;;;;;21.12;100.00;99839.13;1478378;87;22559;-80
2023/08/04 05:15:47;;;;;;;10.15;6.42;;;;;;;21.15;100.00;99838.66;1480262;87;21426;-80
2023/08/04 05:18:15;;;;;;;7.95;6.20;;;;;;;21.09;100.00;99832.02;1482600;88;21505;-80
2023/08/04 05:20:45;;;;;;;8.80;6.87;;;;;;;21.09;100.00;99834.20;1493110;87;21603;-81
2023/08/04 05:23:11;;;;;;;11.22;7.85;;;;;;;21.02;100.00;99841.54;1485690;88;21691;-80
2023/08/04 05:25:38;;;;;;;10.70;7.40;;;;;;;20.95;100.00;99847.56;1486343;87;21418;-79
2023/08/04 05:28:30;;;;;;;8.18;6.78;;;;;;;20.92;100.00;99850.71;1490180;87;21581;-79
2023/08/04 05:31:02;;;;;;;7.40;6.62;;;;;;;20.94;100.00;99855.31;1482138;87;21456;-80
2023/08/04 05:33:31;;;;;;;11.12;7.35;;;;;;;20.96;100.00;99855.38;1485499;87;21610;-80
2023/08/04 05:35:58;;;;;;;9.30;6.37;;;;;;;20.98;100.00;99852.48;1487862;87;22469;-81
2023/08/04 05:38:25;;;;;;;8.93;5.90;;;;;;;21.09;100.00;99842.27;1490077;87;21477;-81
2023/08/04 05:40:51;;;;;;;10.03;7.50;;;;;;;21.29;100.00;99846.50;1481006;87;21411;-81
2023/08/04 05:43:17;;;;;;;12.00;8.68;;;;;;;21.26;100.00;99852.34;1486133;87;22053;-89
2023/08/04 05:45:50;;;;;;;13.32;7.78;;;;;;;21.36;100.00;99854.80;1480646;87;21479;-92
2023/08/04 05:48:16;;;;;;;13.83;8.15;;;;;;;21.55;100.00;99863.61;1482605;87;22329;-86
2023/08/04 05:50:43;;;;;;;16.95;7.92;;;;;;;21.63;100.00;99861.89;1476745;87;21455;-92
2023/08/04 05:53:10;;;;;;;9.70;6.60;;;;;;;21.69;100.00;99864.70;1464716;87;22454;-92
2023/08/04 05:55:36;;;;;;;9.23;6.28;;;;;;;21.73;100.00;99859.16;1472132;87;21397;-91
2023/08/04 05:58:03;;;;;;;14.15;6.62;;;;;;;21.82;100.00;99863.95;1468694;87;22080;-92
2023/08/04 06:04:30;;;;;;;7.25;5.95;;;;;;;22.18;100.00;99873.36;1467526;88;21567;-91
2023/08/04 06:06:56;;;;;;;10.30;6.00;;;;;;;22.48;100.00;99871.30;1477370;87;21345;-90
2023/08/04 06:09:22;;;;;;;11.85;5.87;;;;;;;22.68;100.00;99878.16;1479007;87;21604;-91
2023/08/04 06:11:48;;;;;;;7.90;6.03;;;;;;;22.79;100.00;99876.45;1465593;88;21449;-90
2023/08/04 06:14:15;;;;;;;9.83;6.67;;;;;;;22.80;100.00;99878.92;1466342;87;22176;-90
2023/08/04 06:16:41;;;;;;;11.65;5.95;;;;;;;22.97;100.00;99885.20;1472275;87;22270;-91
2023/08/04 06:19:07;;;;;;;9.30;5.17;;;;;;;22.96;100.00;99884.12;1477031;87;21571;-93
2023/08/04 06:21:35;;;;;;;7.97;4.67;;;;;;;22.79;100.00;99871.91;1531195;87;21397;-93
2023/08/04 06:24:03;;;;;;;10.65;5.35;;;;;;;22.67;100.00;99869.76;1447554;87;21529;-88
2023/08/04 06:26:29;;;;;;;6.50;4.85;;;;;;;22.75;100.00;99868.03;1396957;87;22204;-91
2023/08/04 06:28:56;;;;;;;9.85;5.58;;;;;;;22.91;100.00;99868.61;1400883;87;21464;-89
2023/08/04 06:31:22;;;;;;;10.90;5.03;;;;;;;22.89;100.00;99866.67;1396720;87;21411;-92
2023/08/04 06:33:48;;;;;;;6.75;4.83;;;;;;;22.89;100.00;99869.38;1398534;87;22323;-89
2023/08/04 06:36:15;;;;;;;10.23;5.90;;;;;;;22.95;100.00;99876.52;1398559;87;21413;-93
2023/08/04 06:38:41;;;;;;;7.97;5.53;;;;;;;23.01;100.00;99876.63;1398678;87;21339;-90
2023/08/04 06:41:07;;;;;;;7.60;5.87;;;;;;;23.06;100.00;99877.53;1407750;88;21527;-94
2023/08/04 06:43:34;;;;;;;7.37;6.10;;;;;;;23.14;100.00;99876.33;1472418;87;21420;-92
2023/08/04 06:46:00;;;;;;;6.50;4.85;;;;;;;23.28;100.00;99877.65;1451130;88;21648;-88
2023/08/04 06:48:26;;;;;;;6.17;4.90;;;;;;;23.43;100.00;99877.08;1481518;87;22402;-91
2023/08/04 06:50:53;;;;;;;7.40;4.95;;;;;;;23.49;100.00;99873.93;1478526;87;21418;-94
2023/08/04 06:53:19;;;;;;;6.92;4.80;;;;;;;23.53;100.00;99877.22;1477834;87;22380;-94
2023/08/04 06:55:46;;;;;;;7.55;5.30;;;;;;;23.47;100.00;99875.51;1482792;87;22351;-91
2023/08/04 06:58:13;;;;;;;6.10;4.80;;;;;;;23.40;100.00;99872.98;1481893;87;21622;-92
2023/08/04 07:00:40;;;;;;;10.10;4.35;;;;;;;23.38;100.00;99871.59;1476771;87;21537;-94
2023/08/04 07:03:12;;;;;;;9.60;5.03;;;;;;;23.42;100.00;99877.61;1481714;87;22314;-92
2023/08/04 07:05:39;;;;;;;9.50;4.22;;;;;;;23.43;100.00;99875.19;1479315;87;21382;-95
2023/08/04 07:08:05;;;;;;;5.83;4.28;;;;;;;23.56;100.00;99876.76;1479073;87;21599;-93
2023/08/04 07:10:35;;;;;;;6.33;4.33;;;;;;;23.60;100.00;99882.48;1483644;87;21604;-91
2023/08/04 07:13:02;;;;;;;6.72;5.10;;;;;;;23.65;100.00;99881.22;1476006;87;22321;-93
2023/08/04 07:15:28;;;;;;;7.80;4.35;;;;;;;23.64;100.00;99883.07;1452465;88;22321;-92
2023/08/04 07:17:54;;;;;;;7.83;4.72;;;;;;;23.64;100.00;99889.02;1461261;88;21403;-89
2023/08/04 07:20:22;;;;;;;7.17;4.65;;;;;;;23.54;100.00;99887.52;1470142;88;21581;-91
2023/08/04 07:22:48;;;;;;;5.03;4.00;;;;;;;23.50;100.00;99887.70;1483162;88;21521;-91
2023/08/04 07:25:14;;;;;;;4.50;3.85;;;;;;;23.39;100.00;99880.81;1476490;88;21632;-92
2023/08/04 07:27:42;;;;;;;11.68;4.65;;;;;;;23.36;100.00;99892.09;1480899;87;21618;-91
2023/08/04 07:30:08;;;;;;;5.17;4.67;;;;;;;23.23;100.00;99894.30;1442962;88;22372;-93
2023/08/04 07:32:35;;;;;;;8.33;6.00;;;;;;;23.10;100.00;99883.26;1484404;88;21405;-90
2023/08/04 07:35:01;;;;;;;6.80;4.58;;;;;;;23.13;100.00;99890.36;1478709;87;22343;-92
2023/08/04 07:37:29;;;;;;;6.55;4.20;;;;;;;23.10;100.00;99881.41;1473027;88;21570;-92
2023/08/04 07:39:55;;;;;;;4.65;4.17;;;;;;;23.12;100.00;99884.66;1483027;87;21471;-92
2023/08/04 07:42:22;;;;;;;6.45;4.85;;;;;;;23.20;100.00;99886.95;1489736;87;21514;-90
2023/08/04 07:44:48;;;;;;;6.62;4.78;;;;;;;23.17;100.00;99894.73;1481362;87;21596;-92
2023/08/04 07:47:14;;;;;;;6.22;4.62;;;;;;;23.19;100.00;99888.56;1465688;88;21552;-91
2023/08/04 07:49:40;;;;;;;5.42;4.58;;;;;;;23.47;100.00;99889.55;1476571;87;21434;-90
2023/08/04 07:52:07;;;;;;;11.00;4.53;;;;;;;23.79;100.00;99896.02;1467049;88;21611;-91
2023/08/04 07:54:34;;;;;;;5.87;4.20;;;;;;;24.00;100.00;99893.09;1474063;87;21471;-93
2023/08/04 07:57:02;;;;;;;5.70;4.25;;;;;;;23.98;100.00;99889.81;1467387;88;21420;-93
2023/08/04 07:59:28;;;;;;;7.03;4.58;;;;;;;24.04;100.00;99888.81;1478076;87;21607;-90
2023/08/04 08:01:55;;;;;;;7.47;4.55;;;;;;;24.07;100.00;99891.56;1475694;87;22414;-88
2023/08/04 08:04:21;;;;;;;5.95;3.35;;;;;;;24.03;100.00;99893.14;1465686;88;22358;-92
2023/08/04 08:06:47;;;;;;;7.10;4.17;;;;;;;24.04;100.00;99894.77;1448152;88;22529;-90
2023/08/04 08:09:13;;;;;;;5.55;3.90;;;;;;;24.02;100.00;99895.53;1474413;87;21442;-91
2023/08/04 08:11:40;;;;;;;6.03;3.98;;;;;;;24.10;100.00;99889.70;1471142;88;21670;-87
2023/08/04 08:14:06;;;;;;;5.47;4.42;;;;;;;24.35;100.00;99892.47;1483388;87;22352;-81
2023/08/04 08:16:32;;;;;;;12.85;4.75;;;;;;;24.62;100.00;99884.42;1472940;87;21578;-81
2023/08/04 08:18:58;;;;;;;6.60;4.58;;;;;;;24.76;100.00;99877.01;1476033;87;21449;-81
2023/08/04 08:21:25;;;;;;;6.90;4.55;;;;;;;24.62;100.00;99886.59;1469163;88;21590;-80
2023/08/04 08:23:51;;;;;;;4.83;4.25;;;;;;;24.81;100.00;99878.16;1476093;87;21708;-81
2023/08/04 08:26:17;;;;;;;8.18;4.08;;;;;;;25.09;100.00;99877.89;1477625;87;21434;-81
2023/08/04 08:28:43;;;;;;;7.55;4.90;;;;;;;25.29;100.00;99883.22;1456252;88;22344;-83
2023/08/04 08:31:09;;;;;;;5.45;4.60;;;;;;;25.19;100.00;99876.64;1467285;88;21464;-82
2023/08/04 08:33:37;;;;;;;4.62;4.00;;;;;;;25.14;100.00;99868.47;1477414;87;21486;-82
2023/08/04 08:36:05;;;;;;;5.67;4.47;;;;;;;25.30;100.00;99875.39;1472013;88;21478;-81
2023/08/04 08:38:33;;;;;;;4.65;4.17;;;;;;;25.36;100.00;99877.06;1475050;87;22417;-81
2023/08/04 08:40:59;;;;;;;4.45;3.95;;;;;;;25.29;100.00;99875.09;1476408;87;21641;-80
2023/08/04 08:43:25;;;;;;;5.00;3.62;;;;;;;25.19;100.00;99878.00;1475027;88;22410;-82
2023/08/04 08:45:55;;;;;;;8.38;4.60;;;;;;;25.09;100.00;99881.95;1478129;88;21500;-80
2023/08/04 08:48:22;;;;;;;6.72;4.55;;;;;;;25.03;100.00;99874.86;1480420;87;21966;-84
2023/08/04 08:50:53;;;;;;;4.72;3.70;;;;;;;25.09;100.00;99874.34;1486787;87;21463;-81
2023/08/04 08:53:23;;;;;;;3.80;3.40;;;;;;;25.19;100.00;99871.77;1485507;87;21537;-81
2023/08/04 08:55:50;;;;;;;;;;;;;;;25.30;100.00;99868.08;1459973;89;21474;-83
2023/08/04 08:58:16;;;;;;;5.03;3.42;;;;;;;25.66;100.00;99869.17;1445000;90;20520;-83
2023/08/04 09:00:43;;;;;;;4.37;2.80;;;;;;;25.87;100.00;99873.39;1439659;91;22324;-82
2023/08/04 09:03:09;;;;;;;5.17;2.87;;;;;;;25.88;100.00;99857.40;1426881;90;21687;-82
2023/08/04 09:05:36;;;;;;;3.62;2.92;;;;;;;25.99;100.00;99859.09;1434285;91;21496;-82
2023/08/04 09:08:03;;;;;;;4.97;3.47;;;;;;;26.20;100.00;99856.47;1448671;90;22551;-82
2023/08/04 09:10:32;;;;;;;4.42;3.27;;;;;;;26.26;100.00;99854.05;1436470;91;21481;-83
2023/08/04 09:12:57;;;;;;;5.20;3.05;;;;;;;26.27;100.00;99852.99;1447897;90;22360;-83
2023/08/04 09:15:35;;;;;;;5.20;3.30;;;;;;;26.18;100.00;99851.84;1437538;91;21481;-82
2023/08/04 09:18:09;;;;;;;5.35;3.67;;;;;;;26.14;100.00;99845.33;1439273;90;21391;-81
2023/08/04 09:20:36;;;;;;;5.30;3.17;;;;;;;26.08;100.00;99847.20;1444155;91;21681;-83
2023/08/04 09:23:02;;;;;;;4.45;3.10;;;;;;;26.28;100.00;99845.12;1443056;90;22323;-83
2023/08/04 09:25:29;;;;;;;3.70;3.00;;;;;;;26.34;100.00;99844.05;1440301;91;21384;-80
2023/08/04 09:27:56;;;;;;;4.80;3.33;;;;;;;26.42;100.00;99848.97;1441767;90;21612;-82
2023/08/04 09:30:23;;;;;;;4.83;3.02;;;;;;;26.47;100.00;99833.23;1423627;91;21444;-82
2023/08/04 09:32:50;;;;;;;4.55;3.22;;;;;;;26.50;100.00;99834.92;1444416;90;21538;-81
2023/08/04 09:35:17;;;;;;;5.08;3.22;;;;;;;26.52;100.00;99831.38;1433889;91;22583;-82
2023/08/04 09:37:43;;;;;;;12.05;3.80;;;;;;;26.52;100.00;99835.45;1448242;90;21458;-82
2023/08/04 09:40:19;;;;;;;4.12;3.40;;;;;;;26.69;100.00;99830.34;1443846;91;21629;-82
2023/08/04 09:42:47;;;;;;;7.67;3.42;;;;;;;26.91;100.00;99825.48;1447607;90;21657;-83
2023/08/04 09:45:18;;;;;;;4.15;2.87;;;;;;;27.16;100.00;99833.39;1434030;91;21451;-83
2023/08/04 09:47:49;;;;;;;2.62;2.42;;;;;;;27.46;100.00;99829.85;1466536;87;22353;-82
2023/08/04 09:50:18;;;;;;;11.85;3.42;;;;;;;27.72;100.00;99833.34;1475322;87;21397;-80
2023/08/04 09:52:44;;;;;;;7.47;2.75;;;;;;;27.93;97.25;99836.02;1481055;87;21648;-80
2023/08/04 09:55:11;;;;;;;2.80;2.52;;;;;;;28.25;98.17;99837.79;1467991;88;22328;-80
2023/08/04 09:57:41;;;;;;;5.65;2.52;;;;;;;28.36;95.87;99839.92;1481591;87;21433;-80
2023/08/04 10:00:15;;;;;;;5.10;2.80;;;;;;;28.52;95.76;99836.62;1476644;87;21478;-80
2023/08/04 10:02:39;;;;;;;3.72;3.08;;;;;;;28.46;94.13;99833.66;1467912;88;21660;-81
2023/08/04 10:05:07;;;;;;;7.92;2.72;;;;;;;28.47;95.14;99828.48;1470247;88;21426;-81
2023/08/04 10:07:34;;;;;;;4.78;3.00;;;;;;;28.70;94.61;99825.62;1477270;87;21626;-81
2023/08/04 10:10:03;;;;;;;3.47;2.90;;;;;;;28.98;96.15;99824.88;1463321;88;22299;-80
2023/08/04 10:12:30;;;;;;;4.75;2.70;;;;;;;29.14;93.43;99825.58;1477998;87;21501;-81
2023/08/04 10:14:57;;;;;;;9.35;3.27;;;;;;;29.15;92.09;99820.41;1470838;87;21559;-81
2023/08/04 10:17:25;;;;;;;3.98;2.60;;;;;;;29.16;91.93;99823.94;1474514;87;21486;-80
2023/08/04 10:20:04;;;;;;;3.40;3.10;;;;;;;29.29;93.32;99821.09;1464878;88;21692;-81
2023/08/04 10:22:32;;;;;;;4.10;3.08;;;;;;;29.27;92.61;99828.20;1478177;87;21419;-80
2023/08/04 10:24:59;;;;;;;4.15;2.90;;;;;;;29.30;93.04;99820.02;1474467;87;21611;-80
2023/08/04 10:27:26;;;;;;;3.33;2.60;;;;;;;29.51;93.01;99816.53;1474993;87;22416;-81
2023/08/04 10:30:14;;;;;;;7.33;3.15;;;;;;;29.47;90.58;99812.22;1465312;88;21568;-81
2023/08/04 10:32:40;;;;;;;5.85;3.98;;;;;;;29.62;92.22;99820.78;1481792;87;21411;-80
2023/08/04 10:35:18;;;;;;;7.15;3.95;;;;;;;29.72;90.54;99816.59;1471996;88;21405;-81
2023/08/04 10:37:53;;;;;;;3.77;3.25;;;;;;;29.93;90.10;99817.20;1477466;87;21523;-81
2023/08/04 10:40:33;;;;;;;4.45;3.20;;;;;;;30.08;88.89;99818.37;1473667;87;21641;-80
2023/08/04 10:43:05;;;;;;;3.67;3.27;;;;;;;30.01;86.27;99816.56;1476650;87;21574;-82
2023/08/04 10:46:03;;;;;;;6.17;3.27;;;;;;;30.05;87.95;99811.33;1466924;88;21382;-83
2023/08/04 10:48:26;;;;;;;6.53;3.77;;;;;;;30.10;88.10;99806.62;1480774;87;21692;-82
2023/08/04 10:50:53;;;;;;;6.55;3.42;;;;;;;30.29;88.70;99789.47;1485966;87;21412;-83
2023/08/04 10:53:19;;;;;;;4.37;2.83;;;;;;;30.48;88.82;99784.84;1485976;87;21454;-82
2023/08/04 10:55:57;;;;;;;5.17;3.40;;;;;;;30.48;86.13;99772.55;1483039;87;21478;-82
2023/08/04 10:58:25;;;;;;;9.20;3.33;;;;;;;30.29;86.32;99777.19;1488242;88;21626;-82
2023/08/04 11:00:57;;;;;;;8.78;4.00;;;;;;;30.40;87.50;99783.33;1495897;87;21486;-82
2023/08/04 11:03:33;;;;;;;7.37;3.60;;;;;;;30.51;87.80;99771.95;1482821;87;21485;-82
2023/08/04 11:06:00;;;;;;;4.05;3.37;;;;;;;30.66;87.57;99776.93;1481141;87;22365;-82
2023/08/04 11:08:26;;;;;;;4.97;3.52;;;;;;;30.85;87.17;99770.12;1488388;87;21559;-82
2023/08/04 11:10:55;;;;;;;5.10;3.70;;;;;;;30.90;85.59;99766.75;1483667;88;21486;-82
2023/08/04 11:13:24;;;;;;;5.95;3.62;;;;;;;31.02;86.03;99771.17;1464195;88;21463;-82
2023/08/04 11:15:54;;;;;;;5.40;3.70;;;;;;;31.20;84.83;99764.59;1491049;87;21558;-82
2023/08/04 11:18:25;;;;;;;6.35;3.40;;;;;;;31.28;82.59;99761.72;1486374;87;21440;-83
2023/08/04 11:20:52;;;;;;;9.40;3.42;;;;;;;31.27;83.44;99758.72;1484417;88;21597;-83
2023/08/04 11:23:26;;;;;;;4.75;3.87;;;;;;;31.15;83.38;99764.67;1484559;87;21447;-83
2023/08/04 11:25:54;;;;;;;4.28;3.85;;;;;;;31.27;83.55;99754.61;1483063;87;21499;-83
2023/08/04 11:28:21;;;;;;;4.50;3.77;;;;;;;31.32;83.29;99760.80;1487390;87;22328;-82
2023/08/04 11:30:48;;;;;;;8.23;4.35;;;;;;;31.39;83.34;99759.06;1487054;87;21456;-84
2023/08/04 11:33:18;;;;;;;7.08;4.15;;;;;;;31.46;82.95;99753.45;1484536;87;21648;-84
2023/08/04 11:35:47;;;;;;;5.10;3.72;;;;;;;31.44;82.11;99748.83;1482622;87;21918;-83
2023/08/04 11:38:14;;;;;;;4.30;3.75;;;;;;;31.59;82.84;99753.75;1485458;88;21589;-83